sensor_id;sensor_type;location;lat;lon;timestamp;pressure;altitude;pressure_sealevel;temperature;humidity
43934;BME280;59081;42.706;23.306;2022-12-07T00:01:22;95131.50;;;2.91;100.00
43934;BME280;59081;42.706;23.306;2022-12-07T00:03:52;95135.38;;;2.97;100.00
43934;BME280;59081;42.706;23.306;2022-12-07T00:06:19;95273.03;;;3.83;100.00
43934;BME280;59081;42.706;23.306;2022-12-07T00:08:45;95172.31;;;3.27;100.00
43934;BME280;59081;42.706;23.306;2022-12-07T00:11:19;95232.59;;;3.57;100.00
43934;BME280;59081;42.706;23.306;2022-12-07T00:13:46;95261.38;;;3.79;100.00
43934;BME280;59081;42.706;23.306;2022-12-07T00:16:14;95241.13;;;3.66;100.00
43934;BME280;59081;42.706;23.306;2022-12-07T00:18:40;95235.69;;;3.59;100.00
43934;BME280;59081;42.706;23.306;2022-12-07T00:21:10;95122.16;;;2.85;100.00
43934;BME280;59081;42.706;23.306;2022-12-07T00:23:36;95262.94;;;3.77;100.00
43934;BME280;59081;42.706;23.306;2022-12-07T00:28:45;95148.19;;;2.97;100.00
43934;BME280;59081;42.706;23.306;2022-12-07T00:31:12;95264.88;;;3.76;100.00
43934;BME280;59081;42.706;23.306;2022-12-07T00:33:38;95104.69;;;2.75;100.00
43934;BME280;59081;42.706;23.306;2022-12-07T00:36:07;95138.09;;;2.97;100.00
43934;BME280;59081;42.706;23.306;2022-12-07T00:38:34;95245.78;;;3.69;100.00
43934;BME280;59081;42.706;23.306;2022-12-07T00:41:02;95180.47;;;3.16;100.00
43934;BME280;59081;42.706;23.306;2022-12-07T00:43:29;95133.06;;;2.89;100.00
43934;BME280;59081;42.706;23.306;2022-12-07T00:45:55;95246.59;;;3.59;100.00
43934;BME280;59081;42.706;23.306;2022-12-07T00:48:22;95166.09;;;3.15;100.00
43934;BME280;59081;42.706;23.306;2022-12-07T00:50:48;95247.72;;;3.83;100.00
43934;BME280;59081;42.706;23.306;2022-12-07T00:53:14;95097.69;;;2.85;100.00
43934;BME280;59081;42.706;23.306;2022-12-07T00:55:39;95152.47;;;3.23;100.00
43934;BME280;59081;42.706;23.306;2022-12-07T00:58:05;95229.44;;;3.73;100.00
43934;BME280;59081;42.706;23.306;2022-12-07T01:00:31;95155.59;;;3.18;100.00
43934;BME280;59081;42.706;23.306;2022-12-07T01:02:56;95120.63;;;3.05;100.00
43934;BME280;59081;42.706;23.306;2022-12-07T01:05:22;95157.91;;;3.33;100.00
43934;BME280;59081;42.706;23.306;2022-12-07T01:07:47;95162.56;;;3.36;100.00
43934;BME280;59081;42.706;23.306;2022-12-07T01:10:13;95174.63;;;3.39;100.00
43934;BME280;59081;42.706;23.306;2022-12-07T01:12:39;95251.25;;;3.80;100.00
43934;BME280;59081;42.706;23.306;2022-12-07T01:15:06;95161.03;;;3.28;100.00
43934;BME280;59081;42.706;23.306;2022-12-07T01:17:31;95242.28;;;3.90;100.00
43934;BME280;59081;42.706;23.306;2022-12-07T01:19:57;95121.38;;;3.06;100.00
43934;BME280;59081;42.706;23.306;2022-12-07T01:22:22;95081.75;;;2.91;100.00
43934;BME280;59081;42.706;23.306;2022-12-07T01:24:48;95207.66;;;3.69;100.00
43934;BME280;59081;42.706;23.306;2022-12-07T01:27:14;95199.88;;;3.64;100.00
43934;BME280;59081;42.706;23.306;2022-12-07T01:29:40;95123.72;;;3.11;100.00
43934;BME280;59081;42.706;23.306;2022-12-07T01:32:05;95133.81;;;3.25;100.00
43934;BME280;59081;42.706;23.306;2022-12-07T01:34:31;95125.25;;;3.15;100.00
43934;BME280;59081;42.706;23.306;2022-12-07T01:36:56;95231.38;;;3.87;100.00
43934;BME280;59081;42.706;23.306;2022-12-07T01:39:23;95143.94;;;3.24;100.00
43934;BME280;59081;42.706;23.306;2022-12-07T01:41:48;95178.13;;;3.46;100.00
43934;BME280;59081;42.706;23.306;2022-12-07T01:46:51;95230.19;;;3.91;100.00
43934;BME280;59081;42.706;23.306;2022-12-07T01:49:45;95229.03;;;3.89;100.00
43934;BME280;59081;42.706;23.306;2022-12-07T01:52:27;95223.59;;;3.85;100.00
43934;BME280;59081;42.706;23.306;2022-12-07T01:54:57;95067.75;;;2.85;100.00
43934;BME280;59081;42.706;23.306;2022-12-07T01:57:24;95106.22;;;3.08;100.00
43934;BME280;59081;42.706;23.306;2022-12-07T01:59:51;95150.88;;;3.50;100.00
43934;BME280;59081;42.706;23.306;2022-12-07T02:02:23;95115.94;;;3.27;100.00
43934;BME280;59081;42.706;23.306;2022-12-07T02:04:52;95179.63;;;3.65;100.00
43934;BME280;59081;42.706;23.306;2022-12-07T02:07:20;95105.84;;;3.06;100.00
43934;BME280;59081;42.706;23.306;2022-12-07T02:09:45;95108.56;;;3.06;100.00
43934;BME280;59081;42.706;23.306;2022-12-07T02:12:11;95094.97;;;3.10;100.00
43934;BME280;59081;42.706;23.306;2022-12-07T02:14:37;95085.22;;;3.05;100.00
43934;BME280;59081;42.706;23.306;2022-12-07T02:17:25;95039.78;;;2.77;100.00
43934;BME280;59081;42.706;23.306;2022-12-07T02:28:47;95204.50;;;3.96;100.00
43934;BME280;59081;42.706;23.306;2022-12-07T02:31:19;95081.31;;;3.13;100.00
43934;BME280;59081;42.706;23.306;2022-12-07T02:33:54;95118.25;;;3.29;100.00
43934;BME280;59081;42.706;23.306;2022-12-07T02:36:30;95124.50;;;3.26;100.00
43934;BME280;59081;42.706;23.306;2022-12-07T02:39:11;95121.72;;;3.29;100.00
43934;BME280;59081;42.706;23.306;2022-12-07T02:41:40;95205.28;;;3.82;100.00
43934;BME280;59081;42.706;23.306;2022-12-07T02:44:13;95210.75;;;3.82;100.00
43934;BME280;59081;42.706;23.306;2022-12-07T02:46:42;95105.81;;;3.21;100.00
43934;BME280;59081;42.706;23.306;2022-12-07T02:49:10;95098.03;;;3.15;100.00
43934;BME280;59081;42.706;23.306;2022-12-07T02:51:39;95133.00;;;3.35;100.00
43934;BME280;59081;42.706;23.306;2022-12-07T02:54:13;95067.75;;;2.92;100.00
43934;BME280;59081;42.706;23.306;2022-12-07T03:18:56;95109.72;;;2.98;100.00
43934;BME280;59081;42.706;23.306;2022-12-07T03:21:27;95105.06;;;2.95;100.00
43934;BME280;59081;42.706;23.306;2022-12-07T03:23:58;95162.56;;;3.40;100.00
43934;BME280;59081;42.706;23.306;2022-12-07T03:26:31;95082.53;;;2.80;100.00
43934;BME280;59081;42.706;23.306;2022-12-07T03:29:00;95093.78;;;2.79;100.00
43934;BME280;59081;42.706;23.306;2022-12-07T03:31:31;95124.09;;;2.95;100.00
43934;BME280;59081;42.706;23.306;2022-12-07T03:34:16;95049.09;;;2.44;100.00
43934;BME280;59081;42.706;23.306;2022-12-07T03:37:05;95046.78;;;2.47;100.00
43934;BME280;59081;42.706;23.306;2022-12-07T03:39:40;95183.19;;;3.34;100.00
43934;BME280;59081;42.706;23.306;2022-12-07T03:42:11;95089.53;;;2.74;100.00
43934;BME280;59081;42.706;23.306;2022-12-07T03:44:36;95115.16;;;2.84;100.00
43934;BME280;59081;42.706;23.306;2022-12-07T03:47:15;95097.31;;;2.72;100.00
43934;BME280;59081;42.706;23.306;2022-12-07T03:57:25;95136.16;;;3.01;100.00
43934;BME280;59081;42.706;23.306;2022-12-07T03:59:51;95043.28;;;2.35;100.00
43934;BME280;59081;42.706;23.306;2022-12-07T04:02:18;95108.94;;;2.80;100.00
43934;BME280;59081;42.706;23.306;2022-12-07T04:04:45;95067.75;;;2.67;100.00
43934;BME280;59081;42.706;23.306;2022-12-07T04:07:11;95163.75;;;3.25;100.00
43934;BME280;59081;42.706;23.306;2022-12-07T04:09:36;95104.31;;;2.91;100.00
43934;BME280;59081;42.706;23.306;2022-12-07T04:12:04;95134.22;;;3.05;100.00
43934;BME280;59081;42.706;23.306;2022-12-07T04:14:30;95104.28;;;2.84;100.00
43934;BME280;59081;42.706;23.306;2022-12-07T04:16:57;95117.91;;;2.91;100.00
43934;BME280;59081;42.706;23.306;2022-12-07T04:19:28;95152.09;;;3.17;100.00
43934;BME280;59081;42.706;23.306;2022-12-07T04:21:55;95103.91;;;2.82;100.00
43934;BME280;59081;42.706;23.306;2022-12-07T04:24:21;95077.47;;;2.65;100.00
43934;BME280;59081;42.706;23.306;2022-12-07T04:26:47;95177.75;;;3.23;100.00
43934;BME280;59081;42.706;23.306;2022-12-07T04:29:13;95049.50;;;2.36;100.00
43934;BME280;59081;42.706;23.306;2022-12-07T04:31:38;95098.09;;;2.73;100.00
43934;BME280;59081;42.706;23.306;2022-12-07T04:34:04;95180.47;;;3.20;100.00
43934;BME280;59081;42.706;23.306;2022-12-07T04:36:30;95029.69;;;2.21;100.00
43934;BME280;59081;42.706;23.306;2022-12-07T04:38:56;95039.41;;;2.33;100.00
43934;BME280;59081;42.706;23.306;2022-12-07T04:41:22;95070.09;;;2.48;100.00
43934;BME280;59081;42.706;23.306;2022-12-07T04:44:03;95112.84;;;2.72;100.00
43934;BME280;59081;42.706;23.306;2022-12-07T04:46:31;95183.59;;;3.14;100.00
43934;BME280;59081;42.706;23.306;2022-12-07T04:48:57;95078.63;;;2.35;100.00
43934;BME280;59081;42.706;23.306;2022-12-07T04:51:27;95115.16;;;2.56;100.00
43934;BME280;59081;42.706;23.306;2022-12-07T04:53:53;95175.41;;;3.00;100.00
43934;BME280;59081;42.706;23.306;2022-12-07T04:56:19;95088.75;;;2.42;100.00
43934;BME280;59081;42.706;23.306;2022-12-07T04:58:46;95085.63;;;2.40;100.00
43934;BME280;59081;42.706;23.306;2022-12-07T05:01:13;95107.38;;;2.47;100.00
43934;BME280;59081;42.706;23.306;2022-12-07T05:03:39;95066.19;;;2.20;100.00
43934;BME280;59081;42.706;23.306;2022-12-07T05:06:05;95100.38;;;2.42;100.00
43934;BME280;59081;42.706;23.306;2022-12-07T05:08:32;95165.31;;;2.83;100.00
43934;BME280;59081;42.706;23.306;2022-12-07T05:10:58;95099.59;;;2.38;100.00
43934;BME280;59081;42.706;23.306;2022-12-07T05:13:24;95185.13;;;3.01;100.00
43934;BME280;59081;42.706;23.306;2022-12-07T05:15:49;95094.94;;;2.42;100.00
43934;BME280;59081;42.706;23.306;2022-12-07T05:18:15;95065.03;;;2.21;100.00
43934;BME280;59081;42.706;23.306;2022-12-07T05:20:41;95046.75;;;2.04;100.00
43934;BME280;59081;42.706;23.306;2022-12-07T05:23:07;95114.75;;;2.50;100.00
43934;BME280;59081;42.706;23.306;2022-12-07T05:25:32;95115.13;;;2.49;100.00
43934;BME280;59081;42.706;23.306;2022-12-07T05:27:58;95080.16;;;2.33;100.00
43934;BME280;59081;42.706;23.306;2022-12-07T05:30:24;95063.84;;;2.19;100.00
43934;BME280;59081;42.706;23.306;2022-12-07T05:32:50;95106.59;;;2.61;100.00
43934;BME280;59081;42.706;23.306;2022-12-07T05:35:16;95080.59;;;2.42;100.00
43934;BME280;59081;42.706;23.306;2022-12-07T05:37:42;95075.50;;;2.33;100.00
43934;BME280;59081;42.706;23.306;2022-12-07T05:40:08;95030.44;;;2.04;100.00
43934;BME280;59081;42.706;23.306;2022-12-07T05:42:34;95085.66;;;2.72;100.00
43934;BME280;59081;42.706;23.306;2022-12-07T05:44:59;95150.53;;;3.41;100.00
43934;BME280;59081;42.706;23.306;2022-12-07T05:47:25;95069.72;;;2.60;100.00
43934;BME280;59081;42.706;23.306;2022-12-07T05:49:50;95093.41;;;2.59;100.00
43934;BME280;59081;42.706;23.306;2022-12-07T05:52:16;95063.88;;;2.43;100.00
43934;BME280;59081;42.706;23.306;2022-12-07T05:54:41;95065.44;;;2.52;100.00
43934;BME280;59081;42.706;23.306;2022-12-07T05:57:07;95093.78;;;2.65;100.00
43934;BME280;59081;42.706;23.306;2022-12-07T05:59:32;95090.28;;;2.61;100.00
43934;BME280;59081;42.706;23.306;2022-12-07T06:02:04;95143.13;;;3.34;100.00
43934;BME280;59081;42.706;23.306;2022-12-07T06:04:33;95091.84;;;2.69;100.00
43934;BME280;59081;42.706;23.306;2022-12-07T06:06:59;95087.97;;;2.70;100.00
43934;BME280;59081;42.706;23.306;2022-12-07T06:09:26;95082.53;;;2.56;100.00
43934;BME280;59081;42.706;23.306;2022-12-07T06:11:52;95168.38;;;3.53;100.00
43934;BME280;59081;42.706;23.306;2022-12-07T06:14:37;95084.03;;;3.21;100.00
43934;BME280;59081;42.706;23.306;2022-12-07T06:17:02;95156.31;;;3.46;100.00
43934;BME280;59081;42.706;23.306;2022-12-07T06:19:28;95130.72;;;3.23;100.00
43934;BME280;59081;42.706;23.306;2022-12-07T06:21:54;95085.59;;;3.29;100.00
43934;BME280;59081;42.706;23.306;2022-12-07T06:24:19;95119.31;;;3.67;100.00
43934;BME280;59081;42.706;23.306;2022-12-07T06:26:45;95059.50;;;3.45;100.00
43934;BME280;59081;42.706;23.306;2022-12-07T06:29:11;95181.75;;;4.34;100.00
43934;BME280;59081;42.706;23.306;2022-12-07T06:31:37;95017.84;;;3.48;100.00
43934;BME280;59081;42.706;23.306;2022-12-07T06:34:11;95054.25;;;3.83;100.00
43934;BME280;59081;42.706;23.306;2022-12-07T06:36:37;95113.63;;;4.27;100.00
43934;BME280;59081;42.706;23.306;2022-12-07T06:39:04;95096.91;;;4.18;100.00
43934;BME280;59081;42.706;23.306;2022-12-07T06:41:29;95071.66;;;4.14;100.00
43934;BME280;59081;42.706;23.306;2022-12-07T06:43:55;95101.88;;;4.41;100.00
43934;BME280;59081;42.706;23.306;2022-12-07T06:46:21;95109.16;;;4.54;100.00
43934;BME280;59081;42.706;23.306;2022-12-07T06:48:46;95196.00;;;5.25;100.00
43934;BME280;59081;42.706;23.306;2022-12-07T06:51:11;95111.53;;;4.52;100.00
43934;BME280;59081;42.706;23.306;2022-12-07T06:53:37;95137.13;;;4.73;100.00
43934;BME280;59081;42.706;23.306;2022-12-07T06:56:03;95078.84;;;4.45;100.00
43934;BME280;59081;42.706;23.306;2022-12-07T06:58:29;95188.19;;;5.28;100.00
43934;BME280;59081;42.706;23.306;2022-12-07T07:00:55;95080.31;;;4.57;100.00
43934;BME280;59081;42.706;23.306;2022-12-07T07:03:20;95164.00;;;5.26;100.00
43934;BME280;59081;42.706;23.306;2022-12-07T07:05:46;95199.69;;;5.53;100.00
43934;BME280;59081;42.706;23.306;2022-12-07T07:08:12;95124.81;;;5.02;99.79
43934;BME280;59081;42.706;23.306;2022-12-07T07:10:38;95152.38;;;5.18;99.77
43934;BME280;59081;42.706;23.306;2022-12-07T07:13:04;95116.25;;;5.00;99.60
43934;BME280;59081;42.706;23.306;2022-12-07T07:15:30;95080.59;;;4.73;98.66
43934;BME280;59081;42.706;23.306;2022-12-07T07:17:55;95129.16;;;4.96;99.23
43934;BME280;59081;42.706;23.306;2022-12-07T07:20:21;95117.09;;;4.90;99.68
43934;BME280;59081;42.706;23.306;2022-12-07T07:22:47;95127.22;;;4.93;100.00
43934;BME280;59081;42.706;23.306;2022-12-07T07:25:14;95133.31;;;5.11;100.00
43934;BME280;59081;42.706;23.306;2022-12-07T07:27:40;95136.84;;;5.08;100.00
43934;BME280;59081;42.706;23.306;2022-12-07T07:30:06;95115.88;;;4.98;100.00
43934;BME280;59081;42.706;23.306;2022-12-07T07:32:32;95078.97;;;4.83;100.00
43934;BME280;59081;42.706;23.306;2022-12-07T07:34:57;95125.13;;;5.11;99.71
43934;BME280;59081;42.706;23.306;2022-12-07T07:37:23;95204.28;;;5.63;99.26
43934;BME280;59081;42.706;23.306;2022-12-07T07:39:48;95169.34;;;5.40;98.82
43934;BME280;59081;42.706;23.306;2022-12-07T07:42:14;95201.41;;;5.77;98.62
43934;BME280;59081;42.706;23.306;2022-12-07T07:44:39;95142.81;;;5.41;97.30
43934;BME280;59081;42.706;23.306;2022-12-07T07:47:05;95200.97;;;5.82;97.42
43934;BME280;59081;42.706;23.306;2022-12-07T07:49:32;95052.31;;;4.98;96.50
43934;BME280;59081;42.706;23.306;2022-12-07T07:51:57;95048.81;;;4.97;96.64
43934;BME280;59081;42.706;23.306;2022-12-07T07:54:22;95127.16;;;5.48;95.45
43934;BME280;59081;42.706;23.306;2022-12-07T07:56:48;95200.06;;;6.00;94.84
43934;BME280;59081;42.706;23.306;2022-12-07T07:59:14;95203.56;;;6.00;94.99
43934;BME280;59081;42.706;23.306;2022-12-07T08:01:39;95117.75;;;5.49;96.04
43934;BME280;59081;42.706;23.306;2022-12-07T08:04:05;95109.53;;;5.53;96.62
43934;BME280;59081;42.706;23.306;2022-12-07T08:06:30;95077.34;;;5.34;96.46
43934;BME280;59081;42.706;23.306;2022-12-07T08:08:56;95203.78;;;6.16;96.32
43934;BME280;59081;42.706;23.306;2022-12-07T08:11:23;95200.31;;;6.12;95.62
43934;BME280;59081;42.706;23.306;2022-12-07T08:13:49;95091.28;;;5.43;95.33
43934;BME280;59081;42.706;23.306;2022-12-07T08:16:19;95098.69;;;5.42;94.60
43934;BME280;59081;42.706;23.306;2022-12-07T08:18:45;95068.41;;;5.30;94.48
43934;BME280;59081;42.706;23.306;2022-12-07T08:21:12;95082.69;;;5.44;95.27
43934;BME280;59081;42.706;23.306;2022-12-07T08:23:39;95179.56;;;6.15;95.25
43934;BME280;59081;42.706;23.306;2022-12-07T08:26:06;95100.41;;;5.67;94.06
43934;BME280;59081;42.706;23.306;2022-12-07T08:28:32;95103.13;;;5.70;94.14
43934;BME280;59081;42.706;23.306;2022-12-07T08:31:02;95136.03;;;5.97;94.68
43934;BME280;59081;42.706;23.306;2022-12-07T08:33:28;95206.69;;;6.36;93.47
43934;BME280;59081;42.706;23.306;2022-12-07T08:35:54;95129.03;;;5.92;92.87
43934;BME280;59081;42.706;23.306;2022-12-07T08:38:19;95145.56;;;6.16;92.97
43934;BME280;59081;42.706;23.306;2022-12-07T08:40:53;95167.09;;;6.44;93.25
43934;BME280;59081;42.706;23.306;2022-12-07T08:43:19;95153.56;;;6.34;92.35
43934;BME280;59081;42.706;23.306;2022-12-07T08:45:46;95105.47;;;6.06;91.91
43934;BME280;59081;42.706;23.306;2022-12-07T08:48:13;95044.81;;;5.80;91.73
43934;BME280;59081;42.706;23.306;2022-12-07T08:50:39;95097.53;;;6.15;89.91
43934;BME280;59081;42.706;23.306;2022-12-07T08:53:06;95147.41;;;6.83;89.46
43934;BME280;59081;42.706;23.306;2022-12-07T08:55:33;95082.69;;;6.70;88.76
43934;BME280;59081;42.706;23.306;2022-12-07T08:57:59;95122.63;;;7.17;84.77
43934;BME280;59081;42.706;23.306;2022-12-07T09:00:25;95107.28;;;7.66;83.85
43934;BME280;59081;42.706;23.306;2022-12-07T09:02:51;95115.41;;;8.13;81.18
43934;BME280;59081;42.706;23.306;2022-12-07T09:05:18;95092.69;;;8.32;79.40
43934;BME280;59081;42.706;23.306;2022-12-07T09:07:46;95076.69;;;8.47;77.58
43934;BME280;59081;42.706;23.306;2022-12-07T09:10:13;95050.28;;;8.69;74.83
43934;BME280;59081;42.706;23.306;2022-12-07T09:12:39;95082.19;;;8.99;72.97
43934;BME280;59081;42.706;23.306;2022-12-07T09:15:05;95037.81;;;8.13;74.54
43934;BME280;59081;42.706;23.306;2022-12-07T09:17:32;95152.84;;;8.43;76.89
43934;BME280;59081;42.706;23.306;2022-12-07T09:19:58;95046.69;;;7.61;78.74
43934;BME280;59081;42.706;23.306;2022-12-07T09:22:23;95133.31;;;7.98;79.01
43934;BME280;59081;42.706;23.306;2022-12-07T09:24:49;95059.63;;;7.17;80.27
43934;BME280;59081;42.706;23.306;2022-12-07T09:27:14;95132.78;;;7.44;80.94
43934;BME280;59081;42.706;23.306;2022-12-07T09:29:41;95085.25;;;7.07;82.58
43934;BME280;59081;42.706;23.306;2022-12-07T09:32:07;94995.09;;;6.70;82.80
43934;BME280;59081;42.706;23.306;2022-12-07T09:34:32;95064.06;;;7.31;81.96
43934;BME280;59081;42.706;23.306;2022-12-07T09:36:58;95027.41;;;7.02;83.16
43934;BME280;59081;42.706;23.306;2022-12-07T09:39:23;95082.47;;;7.30;82.33
43934;BME280;59081;42.706;23.306;2022-12-07T09:41:50;95032.06;;;7.05;81.60
43934;BME280;59081;42.706;23.306;2022-12-07T09:44:24;95111.50;;;7.71;82.10
43934;BME280;59081;42.706;23.306;2022-12-07T09:46:50;94996.72;;;7.10;82.82
43934;BME280;59081;42.706;23.306;2022-12-07T09:49:19;95123.66;;;8.13;81.56
43934;BME280;59081;42.706;23.306;2022-12-07T09:51:46;95123.91;;;8.19;80.55
43934;BME280;59081;42.706;23.306;2022-12-07T09:54:14;95017.88;;;7.53;80.15
43934;BME280;59081;42.706;23.306;2022-12-07T09:56:41;95052.81;;;7.68;79.80
43934;BME280;59081;42.706;23.306;2022-12-07T09:59:13;95026.53;;;7.71;79.09
43934;BME280;59081;42.706;23.306;2022-12-07T10:01:42;95069.41;;;8.01;79.49
43934;BME280;59081;42.706;23.306;2022-12-07T10:04:18;95036.72;;;7.71;79.12
43934;BME280;59081;42.706;23.306;2022-12-07T10:06:46;95034.88;;;7.64;79.69
43934;BME280;59081;42.706;23.306;2022-12-07T10:09:14;95095.63;;;8.22;79.51
43934;BME280;59081;42.706;23.306;2022-12-07T10:14:27;94991.84;;;7.81;79.27
43934;BME280;59081;42.706;23.306;2022-12-07T10:16:53;94995.97;;;8.09;78.59
43934;BME280;59081;42.706;23.306;2022-12-07T10:22:12;94996.13;;;8.54;77.38
43934;BME280;59081;42.706;23.306;2022-12-07T10:24:41;95051.25;;;8.95;76.13
43934;BME280;59081;42.706;23.306;2022-12-07T10:27:31;95021.13;;;8.59;75.09
43934;BME280;59081;42.706;23.306;2022-12-07T10:29:58;95016.34;;;8.27;76.39
43934;BME280;59081;42.706;23.306;2022-12-07T10:32:27;95061.94;;;8.57;76.99
43934;BME280;59081;42.706;23.306;2022-12-07T10:37:48;95004.63;;;8.43;76.82
43934;BME280;59081;42.706;23.306;2022-12-07T10:40:34;95004.94;;;8.29;76.56
43934;BME280;59081;42.706;23.306;2022-12-07T10:43:07;95070.44;;;8.27;78.41
43934;BME280;59081;42.706;23.306;2022-12-07T10:51:30;94984.13;;;7.95;79.18
43934;BME280;59081;42.706;23.306;2022-12-07T10:57:05;95036.41;;;8.60;79.14
43934;BME280;59081;42.706;23.306;2022-12-07T10:59:50;94917.50;;;7.95;78.31
43934;BME280;59081;42.706;23.306;2022-12-07T11:02:40;95027.31;;;8.80;77.21
43934;BME280;59081;42.706;23.306;2022-12-07T11:11:13;94964.31;;;8.56;77.08
43934;BME280;59081;42.706;23.306;2022-12-07T11:17:05;94911.53;;;9.10;74.28
43934;BME280;59081;42.706;23.306;2022-12-07T11:25:08;95002.28;;;10.48;68.81
43934;BME280;59081;42.706;23.306;2022-12-07T11:30:34;94909.78;;;10.50;71.31
43934;BME280;59081;42.706;23.306;2022-12-07T11:33:12;94989.47;;;11.39;66.80
43934;BME280;59081;42.706;23.306;2022-12-07T11:38:22;94917.41;;;10.80;64.40
43934;BME280;59081;42.706;23.306;2022-12-07T11:40:51;94924.31;;;10.38;65.72
43934;BME280;59081;42.706;23.306;2022-12-07T11:43:24;94947.50;;;10.88;66.58
43934;BME280;59081;42.706;23.306;2022-12-07T11:45:56;94990.13;;;11.65;64.77
43934;BME280;59081;42.706;23.306;2022-12-07T11:48:38;94977.75;;;11.69;62.17
43934;BME280;59081;42.706;23.306;2022-12-07T11:51:09;94877.84;;;10.87;62.13
43934;BME280;59081;42.706;23.306;2022-12-07T11:56:14;94909.81;;;11.41;62.95
43934;BME280;59081;42.706;23.306;2022-12-07T12:03:50;94900.88;;;13.28;56.56
43934;BME280;59081;42.706;23.306;2022-12-07T12:06:16;94845.84;;;13.30;53.97
43934;BME280;59081;42.706;23.306;2022-12-07T12:14:40;94935.38;;;12.47;59.14
43934;BME280;59081;42.706;23.306;2022-12-07T12:22:52;94933.44;;;13.24;55.37
43934;BME280;59081;42.706;23.306;2022-12-07T12:25:27;94894.31;;;12.58;56.36
43934;BME280;59081;42.706;23.306;2022-12-07T12:27:57;94874.03;;;12.52;56.88
43934;BME280;59081;42.706;23.306;2022-12-07T12:30:34;94928.84;;;13.30;57.84
43934;BME280;59081;42.706;23.306;2022-12-07T12:33:06;94877.00;;;12.94;57.16
43934;BME280;59081;42.706;23.306;2022-12-07T12:35:38;94902.66;;;13.04;56.59
43934;BME280;59081;42.706;23.306;2022-12-07T12:38:27;94909.16;;;13.19;55.54
43934;BME280;59081;42.706;23.306;2022-12-07T12:40:55;94830.63;;;12.71;56.75
43934;BME280;59081;42.706;23.306;2022-12-07T12:43:48;94891.97;;;13.33;54.91
43934;BME280;59081;42.706;23.306;2022-12-07T12:51:47;94807.78;;;13.16;53.41
43934;BME280;59081;42.706;23.306;2022-12-07T12:54:34;94909.53;;;14.00;53.56
43934;BME280;59081;42.706;23.306;2022-12-07T12:59:34;94839.78;;;14.10;53.04
43934;BME280;59081;42.706;23.306;2022-12-07T13:04:55;94911.31;;;15.35;49.79
43934;BME280;59081;42.706;23.306;2022-12-07T13:15:44;94843.19;;;14.47;50.33
43934;BME280;59081;42.706;23.306;2022-12-07T13:23:36;94801.03;;;14.10;51.07
43934;BME280;59081;42.706;23.306;2022-12-07T13:26:23;94895.91;;;14.62;51.42
43934;BME280;59081;42.706;23.306;2022-12-07T13:29:13;94821.78;;;14.48;50.24
43934;BME280;59081;42.706;23.306;2022-12-07T13:31:48;94907.19;;;15.30;50.33
43934;BME280;59081;42.706;23.306;2022-12-07T13:34:34;94895.19;;;14.85;51.25
43934;BME280;59081;42.706;23.306;2022-12-07T13:37:01;94907.00;;;15.10;51.66
43934;BME280;59081;42.706;23.306;2022-12-07T13:39:29;94784.09;;;14.41;50.24
43934;BME280;59081;42.706;23.306;2022-12-07T13:41:58;94796.59;;;14.60;50.47
43934;BME280;59081;42.706;23.306;2022-12-07T13:44:27;94889.03;;;14.81;51.13
43934;BME280;59081;42.706;23.306;2022-12-07T13:49:46;94767.22;;;12.76;55.03
43934;BME280;59081;42.706;23.306;2022-12-07T13:54:48;94893.44;;;12.79;59.04
43934;BME280;59081;42.706;23.306;2022-12-07T13:57:15;94801.56;;;12.39;58.40
43934;BME280;59081;42.706;23.306;2022-12-07T13:59:41;94819.69;;;12.67;59.02
43934;BME280;59081;42.706;23.306;2022-12-07T14:02:22;94813.88;;;12.56;58.14
43934;BME280;59081;42.706;23.306;2022-12-07T14:04:50;94839.22;;;12.73;58.25
43934;BME280;59081;42.706;23.306;2022-12-07T14:07:25;94885.88;;;12.71;59.69
43934;BME280;59081;42.706;23.306;2022-12-07T14:12:20;94831.19;;;12.47;60.24
43934;BME280;59081;42.706;23.306;2022-12-07T14:14:48;94890.66;;;12.88;60.52
43934;BME280;59081;42.706;23.306;2022-12-07T14:17:17;94821.19;;;12.32;59.20
43934;BME280;59081;42.706;23.306;2022-12-07T14:19:51;94836.41;;;12.45;60.03
43934;BME280;59081;42.706;23.306;2022-12-07T14:22:30;94874.50;;;12.60;59.90
43934;BME280;59081;42.706;23.306;2022-12-07T14:25:09;94899.78;;;12.40;60.64
43934;BME280;59081;42.706;23.306;2022-12-07T14:27:36;94868.38;;;12.15;62.25
43934;BME280;59081;42.706;23.306;2022-12-07T14:30:03;94776.28;;;11.29;62.15
43934;BME280;59081;42.706;23.306;2022-12-07T14:32:30;94830.72;;;11.60;64.20
43934;BME280;59081;42.706;23.306;2022-12-07T14:37:26;94894.75;;;12.07;63.29
43934;BME280;59081;42.706;23.306;2022-12-07T14:39:52;94791.94;;;11.32;63.50
43934;BME280;59081;42.706;23.306;2022-12-07T14:42:17;94888.81;;;11.87;63.32
43934;BME280;59081;42.706;23.306;2022-12-07T14:44:43;94904.03;;;11.92;63.85
43934;BME280;59081;42.706;23.306;2022-12-07T14:47:11;94875.53;;;11.73;64.40
43934;BME280;59081;42.706;23.306;2022-12-07T14:49:37;94897.09;;;11.87;64.79
43934;BME280;59081;42.706;23.306;2022-12-07T14:52:03;94892.00;;;11.76;64.63
43934;BME280;59081;42.706;23.306;2022-12-07T14:54:31;94899.78;;;11.78;64.76
43934;BME280;59081;42.706;23.306;2022-12-07T14:56:57;94846.50;;;11.37;65.15
43934;BME280;59081;42.706;23.306;2022-12-07T14:59:23;94895.22;;;11.62;65.35
43934;BME280;59081;42.706;23.306;2022-12-07T15:01:49;94908.91;;;11.66;65.78
43934;BME280;59081;42.706;23.306;2022-12-07T15:04:15;94798.88;;;10.93;65.98
43934;BME280;59081;42.706;23.306;2022-12-07T15:06:40;94852.09;;;11.25;66.38
43934;BME280;59081;42.706;23.306;2022-12-07T15:09:12;94860.09;;;11.10;65.93
43934;BME280;59081;42.706;23.306;2022-12-07T15:11:37;94889.84;;;11.15;65.85
43934;BME280;59081;42.706;23.306;2022-12-07T15:14:02;94917.50;;;11.24;66.45
43934;BME280;59081;42.706;23.306;2022-12-07T15:16:42;94922.88;;;11.06;67.30